Time;durP1;ratioP1;P1;durP2;ratioP2;P2;SDS_P1;SDS_P2;PMS_P1;PMS_P2;Temp;Humidity;BMP_temperature;BMP_pressure;BME280_temperature;BME280_humidity;BME280_pressure;Samples;Min_cycle;Max_cycle;Signal;HPM_P1;HPM_P2
2022/11/15 00:00:19;;;;;;;26.70;18.80;;;7.60;99.90;;;;;;5069370;28;20127;-55
2022/11/15 00:02:44;;;;;;;25.47;17.77;;;7.60;99.90;;;;;;5066750;28;20320;-53
2022/11/15 00:05:10;;;;;;;26.50;18.40;;;7.60;99.90;;;;;;5049381;28;20064;-53
2022/11/15 00:07:35;;;;;;;27.33;18.93;;;7.70;99.90;;;;;;5050455;28;20040;-51
2022/11/15 00:10:01;;;;;;;23.73;18.13;;;7.70;99.90;;;;;;5061960;28;20566;-52
2022/11/15 00:12:28;;;;;;;25.33;17.97;;;7.70;99.90;;;;;;5071046;28;20032;-52
2022/11/15 00:14:53;;;;;;;24.33;18.33;;;7.70;99.90;;;;;;5068878;28;20033;-51
2022/11/15 00:17:19;;;;;;;26.23;18.03;;;7.80;99.90;;;;;;5070306;28;20123;-53
2022/11/15 00:19:45;;;;;;;24.33;18.37;;;7.80;99.90;;;;;;5069788;28;20033;-52
2022/11/15 00:22:10;;;;;;;25.60;18.70;;;7.80;99.90;;;;;;5069876;28;20145;-54
2022/11/15 00:24:36;;;;;;;24.60;17.65;;;7.80;99.90;;;;;;5051151;28;20044;-52
2022/11/15 00:27:01;;;;;;;25.93;19.10;;;7.80;99.90;;;;;;5050011;28;20037;-54
2022/11/15 00:29:27;;;;;;;23.90;18.80;;;7.90;99.90;;;;;;5051858;28;20098;-55
2022/11/15 00:31:52;;;;;;;28.73;19.87;;;7.90;99.90;;;;;;5070102;28;20043;-52
2022/11/15 00:34:18;;;;;;;25.77;18.63;;;7.90;99.90;;;;;;5068817;28;20254;-55
2022/11/15 00:36:43;;;;;;;25.97;19.33;;;7.90;99.90;;;;;;5069303;28;20041;-56
2022/11/15 00:39:09;;;;;;;30.93;19.40;;;7.90;99.90;;;;;;5068276;28;20024;-56
2022/11/15 00:41:35;;;;;;;24.57;19.03;;;7.90;99.90;;;;;;5048879;28;20086;-54
2022/11/15 00:44:00;;;;;;;25.40;17.73;;;7.90;99.90;;;;;;5048855;28;20041;-55
2022/11/15 00:46:26;;;;;;;28.60;19.03;;;7.90;99.90;;;;;;5050206;28;20072;-54
2022/11/15 00:48:51;;;;;;;25.87;17.57;;;7.90;99.90;;;;;;5049877;28;20052;-54
2022/11/15 00:51:17;;;;;;;30.13;18.77;;;8.00;99.90;;;;;;5050107;28;20048;-56
2022/11/15 00:53:42;;;;;;;22.93;17.27;;;8.00;99.90;;;;;;5057886;28;20123;-54
2022/11/15 00:56:08;;;;;;;27.93;19.27;;;8.00;99.90;;;;;;5056144;28;20043;-53
2022/11/15 00:58:33;;;;;;;31.77;19.17;;;8.00;99.90;;;;;;5049738;28;20040;-55
2022/11/15 01:01:11;;;;;;;26.20;18.37;;;8.10;99.90;;;;;;5055634;28;20048;-55
2022/11/15 01:03:37;;;;;;;25.58;17.83;;;8.00;99.90;;;;;;5088746;28;20052;-54
2022/11/15 01:06:03;;;;;;;24.55;17.90;;;8.10;99.90;;;;;;5067374;28;20048;-55
2022/11/15 01:08:29;;;;;;;26.58;17.27;;;8.10;99.90;;;;;;5067840;28;20251;-54
2022/11/15 01:10:54;;;;;;;27.33;18.93;;;8.10;99.90;;;;;;5069605;28;20044;-56
2022/11/15 01:13:20;;;;;;;30.63;20.20;;;8.10;99.90;;;;;;5074545;28;20040;-53
2022/11/15 01:15:45;;;;;;;27.43;17.90;;;8.10;99.90;;;;;;5071162;28;20067;-51
2022/11/15 01:18:11;;;;;;;29.30;19.13;;;8.10;99.90;;;;;;5071091;28;20109;-53
2022/11/15 01:20:43;;;;;;;27.47;19.50;;;8.20;99.90;;;;;;5079962;28;20055;-51
2022/11/15 01:23:09;;;;;;;29.08;19.08;;;8.10;99.90;;;;;;5073745;28;20521;-51
2022/11/15 01:25:35;;;;;;;25.05;18.65;;;8.20;99.90;;;;;;5066258;28;20386;-54
2022/11/15 01:28:00;;;;;;;26.60;18.00;;;8.10;99.90;;;;;;5073927;28;20118;-51
2022/11/15 01:30:26;;;;;;;26.07;18.07;;;8.20;99.90;;;;;;5057380;28;20474;-51
2022/11/15 01:32:51;;;;;;;30.73;18.90;;;8.20;99.90;;;;;;5052193;28;20090;-54
2022/11/15 01:35:17;;;;;;;26.97;17.63;;;8.20;99.90;;;;;;5067785;28;20097;-51
2022/11/15 01:37:42;;;;;;;27.50;17.57;;;8.20;99.90;;;;;;5054353;28;20039;-51
2022/11/15 01:40:09;;;;;;;29.83;18.67;;;8.30;99.90;;;;;;5054056;28;20040;-54
2022/11/15 01:42:34;;;;;;;32.38;19.75;;;8.20;99.90;;;;;;5053755;28;20037;-56
2022/11/15 01:45:00;;;;;;;31.70;20.03;;;8.30;99.90;;;;;;5055624;28;20135;-55
2022/11/15 01:47:30;;;;;;;30.45;19.50;;;8.30;99.90;;;;;;5063031;28;20527;-55
2022/11/15 01:50:05;;;;;;;34.35;20.13;;;8.30;99.90;;;;;;5053436;28;20056;-54
2022/11/15 01:52:34;;;;;;;37.13;22.35;;;8.30;99.90;;;;;;5053487;28;20043;-51
2022/11/15 01:55:06;;;;;;;40.47;20.83;;;8.30;99.90;;;;;;5051868;28;20409;-51
2022/11/15 01:57:31;;;;;;;36.75;22.67;;;8.40;99.90;;;;;;5057142;28;20047;-54
2022/11/15 01:59:57;;;;;;;39.87;22.30;;;8.40;99.90;;;;;;5072808;28;20502;-52
2022/11/15 02:02:23;;;;;;;39.38;22.33;;;8.40;99.90;;;;;;5073236;28;20496;-51
2022/11/15 02:04:49;;;;;;;40.60;22.25;;;8.40;99.90;;;;;;5071767;28;20045;-52
2022/11/15 02:07:19;;;;;;;42.57;22.57;;;8.40;99.90;;;;;;5070829;28;20041;-55
2022/11/15 02:09:46;;;;;;;43.67;23.25;;;8.40;99.90;;;;;;5053122;28;20112;-54
2022/11/15 02:12:18;;;;;;;38.65;21.90;;;8.40;99.90;;;;;;5052608;28;20372;-51
2022/11/15 02:14:51;;;;;;;42.15;23.95;;;8.50;99.90;;;;;;5051666;28;20130;-51
2022/11/15 02:17:37;;;;;;;49.35;24.73;;;8.40;99.90;;;;;;5051753;28;20482;-51
2022/11/15 02:20:25;;;;;;;42.30;24.95;;;8.50;99.90;;;;;;5057567;28;20052;-53
2022/11/15 02:23:15;;;;;;;43.80;23.48;;;8.50;99.90;;;;;;5066183;28;20040;-53
2022/11/15 02:25:52;;;;;;;43.92;25.17;;;8.50;99.90;;;;;;5072538;28;20040;-53
2022/11/15 02:29:01;;;;;;;46.38;25.63;;;8.50;99.90;;;;;;5069599;28;20413;-53
2022/11/15 02:31:45;;;;;;;43.30;24.55;;;8.60;99.90;;;;;;5022970;28;20585;-54
2022/11/15 02:34:38;;;;;;;43.00;23.98;;;8.60;99.90;;;;;;5051194;28;20081;-56
2022/11/15 02:37:14;;;;;;;45.15;25.60;;;8.60;99.90;;;;;;5063284;28;20472;-53
2022/11/15 02:40:00;;;;;;;47.28;27.17;;;8.60;99.90;;;;;;5070360;28;20086;-54
2022/11/15 02:45:23;;;;;;;45.97;25.42;;;8.70;99.90;;;;;;5071672;28;20440;-55
2022/11/15 02:47:52;;;;;;;48.58;28.15;;;8.70;99.90;;;;;;5071955;28;20047;-55
2022/11/15 02:50:20;;;;;;;48.03;26.95;;;8.80;99.90;;;;;;5062536;28;20302;-53
2022/11/15 02:52:48;;;;;;;48.75;26.98;;;8.80;99.90;;;;;;5052118;28;20056;-55
2022/11/15 02:55:50;;;;;;;50.67;27.90;;;8.80;99.90;;;;;;5069319;28;20036;-54
2022/11/15 02:58:45;;;;;;;43.67;27.83;;;8.80;99.90;;;;;;4990086;28;20046;-55
2022/11/15 03:01:38;;;;;;;49.83;26.92;;;8.80;99.90;;;;;;4989396;28;20105;-54
2022/11/15 03:04:13;;;;;;;46.58;26.48;;;8.90;99.90;;;;;;4988540;28;20048;-55
2022/11/15 03:07:11;;;;;;;45.28;27.33;;;8.90;99.90;;;;;;4989367;28;20068;-55
2022/11/15 03:09:51;;;;;;;;;;;8.90;99.90;;;;;;4971166;28;20062;-55
2022/11/15 03:12:30;;;;;;;50.35;28.70;;;8.90;99.90;;;;;;4970003;28;19969;-55
2022/11/15 03:14:58;;;;;;;48.60;28.63;;;8.90;99.90;;;;;;4969539;28;20690;-55
2022/11/15 03:17:33;;;;;;;57.47;30.65;;;8.90;99.90;;;;;;4970296;28;20658;-55
2022/11/15 03:20:03;;;;;;;58.55;30.60;;;9.00;99.90;;;;;;4970891;28;20178;-53
2022/11/15 03:22:34;;;;;;;55.90;31.13;;;9.00;99.90;;;;;;4970178;28;20043;-54
2022/11/15 03:25:04;;;;;;;49.70;31.65;;;9.10;99.90;;;;;;4968992;28;20610;-55
2022/11/15 03:27:37;;;;;;;56.28;33.05;;;9.10;99.90;;;;;;4969477;28;20051;-55
2022/11/15 03:30:06;;;;;;;54.75;33.55;;;9.10;99.90;;;;;;4970429;28;20039;-56
2022/11/15 03:32:37;;;;;;;64.78;33.22;;;9.10;99.90;;;;;;5026942;28;20056;-55
2022/11/15 03:35:06;;;;;;;59.63;35.17;;;9.20;99.90;;;;;;5050172;28;20282;-56
2022/11/15 03:37:50;;;;;;;55.05;35.22;;;9.20;99.90;;;;;;5056486;28;20489;-55
2022/11/15 03:40:20;;;;;;;66.07;37.38;;;9.20;99.90;;;;;;5059849;28;20141;-55
2022/11/15 03:43:08;;;;;;;59.83;37.25;;;9.30;99.90;;;;;;5050154;28;20490;-57
2022/11/15 03:45:47;;;;;;;63.70;35.55;;;9.30;99.90;;;;;;5069435;28;20052;-57
2022/11/15 03:48:18;;;;;;;81.32;38.00;;;9.40;99.90;;;;;;5055374;28;20082;-55
2022/11/15 03:50:45;;;;;;;62.95;36.35;;;9.40;99.90;;;;;;5051400;28;20434;-54
2022/11/15 03:53:11;;;;;;;63.05;37.25;;;9.40;99.90;;;;;;5049621;28;20044;-55
2022/11/15 03:55:37;;;;;;;73.90;40.50;;;9.40;99.90;;;;;;5056722;28;20231;-54
2022/11/15 03:58:03;;;;;;;68.47;40.90;;;9.50;99.90;;;;;;5051203;28;20041;-56
2022/11/15 04:00:29;;;;;;;68.70;40.93;;;9.50;99.90;;;;;;5050231;28;20478;-55
2022/11/15 04:02:54;;;;;;;70.70;40.33;;;9.50;99.90;;;;;;5061201;28;20118;-55
2022/11/15 04:05:20;;;;;;;73.97;38.53;;;9.60;99.90;;;;;;5050201;28;20072;-56
2022/11/15 04:07:45;;;;;;;76.97;40.63;;;9.60;99.90;;;;;;5051067;28;20045;-54
2022/11/15 04:10:12;;;;;;;62.50;37.60;;;9.60;99.90;;;;;;5050702;28;20954;-55
2022/11/15 04:12:40;;;;;;;;;;;9.60;99.90;;;;;;5051191;28;20155;-55
2022/11/15 04:15:12;;;;;;;66.72;36.80;;;9.60;99.90;;;;;;5067914;28;19985;-55
2022/11/15 04:17:41;;;;;;;68.63;37.85;;;9.70;99.90;;;;;;5069547;28;20453;-55
2022/11/15 04:25:50;;;;;;;59.67;33.83;;;9.80;99.90;;;;;;5069039;28;20123;-53
2022/11/15 04:28:16;;;;;;;57.45;34.65;;;9.80;99.90;;;;;;5061239;28;20049;-52
2022/11/15 04:30:41;;;;;;;59.10;34.30;;;9.80;99.90;;;;;;5050479;28;20110;-55
2022/11/15 04:33:07;;;;;;;55.90;34.23;;;9.80;99.90;;;;;;5068780;28;20274;-53
2022/11/15 04:35:32;;;;;;;54.33;31.83;;;9.90;99.90;;;;;;5069714;28;20043;-56
2022/11/15 04:37:59;;;;;;;65.77;35.10;;;9.90;99.90;;;;;;5069634;28;20278;-55
2022/11/15 04:40:24;;;;;;;55.13;32.20;;;9.90;99.90;;;;;;5070013;28;20044;-56
2022/11/15 04:42:50;;;;;;;53.07;32.97;;;10.00;99.90;;;;;;5067859;28;20423;-55
2022/11/15 04:45:15;;;;;;;58.17;33.80;;;10.00;99.90;;;;;;5060333;28;20056;-54
2022/11/15 04:47:44;;;;;;;60.47;35.27;;;10.00;99.90;;;;;;5050210;28;20055;-55
2022/11/15 04:50:13;;;;;;;51.50;31.73;;;10.00;99.90;;;;;;5048311;28;20469;-54
2022/11/15 04:52:50;;;;;;;56.60;33.22;;;10.10;99.90;;;;;;5048727;28;20068;-51
2022/11/15 04:55:15;;;;;;;56.60;30.40;;;10.10;99.90;;;;;;5049767;28;20123;-56
2022/11/15 04:57:41;;;;;;;47.83;28.48;;;10.10;99.90;;;;;;5050166;28;20048;-55
2022/11/15 05:00:13;;;;;;;47.22;28.67;;;10.20;99.90;;;;;;5049913;28;20045;-55
2022/11/15 05:05:24;;;;;;;46.35;29.83;;;10.20;99.90;;;;;;5050299;28;20091;-56
2022/11/15 05:07:49;;;;;;;46.63;28.30;;;10.20;99.90;;;;;;5050032;28;20119;-55
2022/11/15 05:10:15;;;;;;;49.15;32.10;;;10.20;99.90;;;;;;5062070;28;20212;-56
2022/11/15 05:12:40;;;;;;;55.72;31.83;;;10.20;99.90;;;;;;5069174;28;20039;-54
2022/11/15 05:15:06;;;;;;;48.80;31.30;;;10.10;99.90;;;;;;5068631;28;20033;-54
2022/11/15 05:17:32;;;;;;;51.20;31.45;;;10.00;99.90;;;;;;5054462;28;20489;-55
2022/11/15 05:19:57;;;;;;;51.00;32.47;;;10.00;99.90;;;;;;5049557;28;20406;-53
2022/11/15 05:22:23;;;;;;;46.63;29.90;;;10.00;99.90;;;;;;5049511;28;20783;-56
2022/11/15 05:24:49;;;;;;;43.97;29.00;;;10.00;99.90;;;;;;5048712;28;20037;-54
2022/11/15 05:27:14;;;;;;;40.80;26.60;;;10.00;99.90;;;;;;5058548;28;20283;-55
2022/11/15 05:29:40;;;;;;;44.27;28.97;;;10.10;99.90;;;;;;5049796;28;20121;-56
2022/11/15 05:32:08;;;;;;;41.53;26.73;;;10.20;99.90;;;;;;5060905;28;20493;-56
2022/11/15 05:34:33;;;;;;;46.72;27.67;;;10.20;99.90;;;;;;5067947;28;20090;-55
2022/11/15 05:36:59;;;;;;;35.80;27.73;;;10.30;99.90;;;;;;5068757;28;20509;-54
2022/11/15 05:39:25;;;;;;;43.13;27.15;;;10.30;99.90;;;;;;5069488;28;20083;-55
2022/11/15 05:41:56;;;;;;;;;;;10.40;99.90;;;;;;5072090;28;20032;-54
2022/11/15 05:44:23;;;;;;;41.08;26.05;;;10.50;99.90;;;;;;5069481;28;19939;-54
2022/11/15 05:46:53;;;;;;;38.33;26.02;;;10.50;99.90;;;;;;5086317;28;20085;-55
2022/11/15 05:49:21;;;;;;;36.15;25.15;;;10.50;99.90;;;;;;5078349;28;20040;-55
2022/11/15 05:51:49;;;;;;;37.55;25.42;;;10.60;99.90;;;;;;5073244;28;20429;-54
2022/11/15 05:54:16;;;;;;;40.83;26.67;;;10.60;99.90;;;;;;5067186;28;20032;-56
2022/11/15 05:56:42;;;;;;;38.45;25.75;;;10.70;99.90;;;;;;5065802;28;20030;-56
2022/11/15 05:59:09;;;;;;;34.88;24.40;;;10.70;99.90;;;;;;5049505;28;20040;-56
2022/11/15 06:01:34;;;;;;;37.10;24.55;;;10.80;99.90;;;;;;5047529;28;20123;-55
2022/11/15 06:04:00;;;;;;;33.88;22.00;;;10.80;99.90;;;;;;5047646;28;20175;-53
2022/11/15 06:06:28;;;;;;;31.13;21.53;;;10.80;99.90;;;;;;5048056;28;20055;-53
2022/11/15 06:08:53;;;;;;;31.80;22.13;;;10.90;99.90;;;;;;5060520;28;20044;-53
2022/11/15 06:11:19;;;;;;;29.97;21.77;;;10.90;99.90;;;;;;5069291;28;20037;-54
2022/11/15 06:13:45;;;;;;;29.38;21.70;;;11.00;99.90;;;;;;5049279;28;20337;-53
2022/11/15 06:16:10;;;;;;;30.73;21.57;;;11.00;99.90;;;;;;5048743;28;20482;-55
2022/11/15 06:18:36;;;;;;;32.63;21.42;;;11.10;99.90;;;;;;5050199;28;20037;-53
2022/11/15 06:21:02;;;;;;;31.55;20.98;;;11.10;99.90;;;;;;5049109;28;20124;-53
2022/11/15 06:23:31;;;;;;;31.55;19.38;;;11.20;99.90;;;;;;5048634;28;20049;-55
2022/11/15 06:26:00;;;;;;;30.73;20.92;;;11.20;99.90;;;;;;5052605;28;20045;-56
2022/11/15 06:28:33;;;;;;;29.15;19.98;;;11.20;99.90;;;;;;5069558;28;20040;-52
2022/11/15 06:31:07;;;;;;;30.27;21.00;;;11.30;99.90;;;;;;5062073;28;20445;-54
2022/11/15 06:33:33;;;;;;;29.52;21.13;;;11.30;99.90;;;;;;5064649;28;20039;-53
2022/11/15 06:36:07;;;;;;;28.33;20.83;;;11.30;99.90;;;;;;5086191;28;20032;-54
2022/11/15 06:38:34;;;;;;;25.08;19.42;;;11.30;99.90;;;;;;5073782;28;20401;-52
2022/11/15 06:41:08;;;;;;;31.27;18.80;;;11.40;99.90;;;;;;5068738;28;20032;-53
2022/11/15 06:43:34;;;;;;;22.98;19.17;;;11.40;99.90;;;;;;5069481;28;20048;-54
2022/11/15 06:46:01;;;;;;;29.13;21.67;;;11.40;99.90;;;;;;5072057;28;20085;-55
2022/11/15 06:48:27;;;;;;;27.58;20.05;;;11.40;99.90;;;;;;5066230;28;20410;-55
2022/11/15 06:50:54;;;;;;;27.70;18.88;;;11.50;99.90;;;;;;5065454;28;20108;-55
2022/11/15 06:53:20;;;;;;;26.17;19.27;;;11.50;99.90;;;;;;5073082;28;20815;-52
2022/11/15 06:55:45;;;;;;;28.43;19.43;;;11.50;99.90;;;;;;5060431;28;20044;-54
2022/11/15 06:58:11;;;;;;;25.20;18.27;;;11.50;99.90;;;;;;5053793;28;20275;-54
2022/11/15 07:00:36;;;;;;;24.70;19.23;;;11.60;99.90;;;;;;5058964;28;20550;-55
2022/11/15 07:03:03;;;;;;;33.80;20.67;;;11.60;99.90;;;;;;5066422;28;20283;-56
2022/11/15 07:05:28;;;;;;;23.88;19.50;;;11.60;99.90;;;;;;5056210;28;20078;-52
2022/11/15 07:07:56;;;;;;;31.20;19.98;;;11.60;99.90;;;;;;5070633;28;20032;-53
2022/11/15 07:10:24;;;;;;;26.83;19.73;;;11.60;99.90;;;;;;5069608;28;20192;-55
2022/11/15 07:12:50;;;;;;;30.00;20.92;;;11.60;99.90;;;;;;5060300;28;20389;-52
2022/11/15 07:15:16;;;;;;;31.42;20.27;;;11.60;99.90;;;;;;5051293;28;20075;-56
2022/11/15 07:17:42;;;;;;;;;;;11.60;99.90;;;;;;5051809;28;20060;-52
2022/11/15 07:20:08;;;;;;;33.08;24.15;;;11.60;99.90;;;;;;5052134;28;19960;-55
2022/11/15 07:22:34;;;;;;;32.90;25.83;;;11.60;99.90;;;;;;5069227;28;20466;-54
2022/11/15 07:24:59;;;;;;;34.13;24.80;;;11.50;99.90;;;;;;5069984;28;20119;-55
2022/11/15 07:27:25;;;;;;;36.53;25.67;;;11.40;99.90;;;;;;5055645;28;20588;-54
2022/11/15 07:29:50;;;;;;;30.73;24.23;;;11.40;99.90;;;;;;5063378;28;20409;-52
2022/11/15 07:32:16;;;;;;;32.93;26.43;;;11.30;99.90;;;;;;5057855;28;20358;-55
2022/11/15 07:34:42;;;;;;;36.65;26.20;;;11.20;99.90;;;;;;5073660;28;20048;-54
2022/11/15 07:37:07;;;;;;;34.00;25.70;;;11.20;99.90;;;;;;5058661;28;20028;-56
2022/11/15 07:39:33;;;;;;;33.17;23.48;;;11.20;99.90;;;;;;5065882;28;20053;-53
2022/11/15 07:44:43;;;;;;;29.63;23.02;;;11.20;99.90;;;;;;5052508;28;20348;-55
2022/11/15 07:47:09;;;;;;;32.97;22.00;;;11.20;99.90;;;;;;5053113;28;20036;-56
2022/11/15 07:49:34;;;;;;;28.67;21.27;;;11.20;99.90;;;;;;5071753;28;20417;-56
2022/11/15 07:52:00;;;;;;;30.20;21.33;;;11.20;99.90;;;;;;5059105;28;20037;-53
2022/11/15 07:54:25;;;;;;;31.50;23.60;;;11.20;99.90;;;;;;5079780;28;20044;-52
2022/11/15 07:56:51;;;;;;;27.83;20.83;;;11.20;99.90;;;;;;5067115;28;20029;-55
2022/11/15 07:59:17;;;;;;;29.77;22.47;;;11.30;99.90;;;;;;5063766;28;20699;-56
2022/11/15 08:01:42;;;;;;;30.57;21.87;;;11.30;99.90;;;;;;5066610;28;20498;-57
2022/11/15 08:04:09;;;;;;;28.67;22.47;;;11.30;99.90;;;;;;5073299;28;20122;-56
2022/11/15 08:06:35;;;;;;;29.17;22.55;;;11.30;99.90;;;;;;5059682;28;20086;-56
2022/11/15 08:09:00;;;;;;;32.87;21.23;;;11.40;99.90;;;;;;5055945;28;20489;-55
2022/11/15 08:11:26;;;;;;;28.67;21.47;;;11.40;99.90;;;;;;5072904;28;20043;-57
2022/11/15 08:13:52;;;;;;;32.80;23.13;;;11.40;99.90;;;;;;5062319;28;20336;-55
2022/11/15 08:16:17;;;;;;;25.83;22.03;;;11.40;99.90;;;;;;5079061;28;20032;-58
2022/11/15 08:18:43;;;;;;;30.43;21.23;;;11.40;99.90;;;;;;5068722;28;20043;-57
2022/11/15 08:21:12;;;;;;;32.20;23.63;;;11.50;99.90;;;;;;5065740;28;20342;-56
2022/11/15 08:23:38;;;;;;;30.75;22.38;;;11.50;99.90;;;;;;5059084;28;20287;-53
2022/11/15 08:26:04;;;;;;;30.10;22.70;;;11.50;99.90;;;;;;5067577;28;20041;-55
2022/11/15 08:28:30;;;;;;;;;;;11.50;99.90;;;;;;5072325;28;20119;-54
2022/11/15 08:30:56;;;;;;;29.10;22.13;;;11.60;99.90;;;;;;5068520;28;20469;-56
2022/11/15 08:33:22;;;;;;;29.05;21.67;;;11.60;99.90;;;;;;5065746;28;20059;-52
2022/11/15 08:35:48;;;;;;;29.88;22.98;;;11.60;99.90;;;;;;5077696;28;20040;-53
2022/11/15 08:38:14;;;;;;;26.35;22.52;;;11.60;99.90;;;;;;5058732;28;20067;-56
2022/11/15 08:40:40;;;;;;;25.23;22.38;;;11.60;99.90;;;;;;5050301;28;20045;-55
2022/11/15 08:43:06;;;;;;;29.85;22.95;;;11.60;99.90;;;;;;5060887;28;20416;-55
2022/11/15 08:45:33;;;;;;;22.98;20.60;;;11.60;99.90;;;;;;5066244;28;20045;-58
2022/11/15 08:48:01;;;;;;;24.13;21.27;;;11.70;99.90;;;;;;5055930;28;20060;-55
2022/11/15 08:50:27;;;;;;;24.05;21.38;;;11.70;99.90;;;;;;5052613;28;20498;-56
2022/11/15 08:52:52;;;;;;;24.70;20.20;;;11.70;99.90;;;;;;5055199;28;20039;-57
2022/11/15 08:55:18;;;;;;;22.40;19.90;;;11.70;99.90;;;;;;5069454;28;20120;-57
2022/11/15 08:57:44;;;;;;;25.83;20.27;;;11.70;99.90;;;;;;5070631;28;20364;-57
2022/11/15 09:00:11;;;;;;;23.23;19.30;;;11.80;99.90;;;;;;5078680;28;20313;-57
2022/11/15 09:02:38;;;;;;;22.65;20.17;;;11.80;99.90;;;;;;5055040;28;20045;-57
2022/11/15 09:05:05;;;;;;;20.73;18.40;;;11.80;99.90;;;;;;5068811;28;20068;-55
2022/11/15 09:07:31;;;;;;;;;;;11.80;99.90;;;;;;5066131;28;20122;-54
2022/11/15 09:09:57;;;;;;;20.55;18.35;;;11.80;99.90;;;;;;5069563;28;19920;-56
2022/11/15 09:12:23;;;;;;;20.40;18.27;;;11.80;99.90;;;;;;5069112;28;20036;-55
2022/11/15 09:14:48;;;;;;;21.15;18.92;;;11.80;99.90;;;;;;5061912;28;20098;-54
2022/11/15 09:17:14;;;;;;;19.93;17.90;;;11.90;99.90;;;;;;5049687;28;20139;-56
2022/11/15 09:19:39;;;;;;;22.63;19.13;;;11.90;99.90;;;;;;5049449;28;20494;-56
2022/11/15 09:22:08;;;;;;;22.57;19.40;;;11.90;99.90;;;;;;5054206;28;20498;-56
2022/11/15 09:24:34;;;;;;;24.02;19.60;;;11.90;99.90;;;;;;5059443;28;20044;-54
2022/11/15 09:27:00;;;;;;;27.98;21.70;;;11.90;99.90;;;;;;5069654;28;20064;-57
2022/11/15 09:29:26;;;;;;;24.52;20.40;;;11.90;99.90;;;;;;5056205;28;20071;-56
2022/11/15 09:31:54;;;;;;;21.83;19.52;;;11.90;99.90;;;;;;5073680;28;20085;-56
2022/11/15 09:34:20;;;;;;;25.58;21.50;;;11.90;99.90;;;;;;5067103;28;20043;-56
2022/11/15 09:36:46;;;;;;;26.35;22.77;;;11.80;99.90;;;;;;5065679;28;20060;-58
2022/11/15 09:39:12;;;;;;;29.38;24.95;;;11.80;99.90;;;;;;5051455;28;20425;-56
2022/11/15 09:41:52;;;;;;;29.85;26.23;;;11.80;99.90;;;;;;5065773;28;20522;-54
2022/11/15 09:44:34;;;;;;;37.25;25.83;;;11.80;99.90;;;;;;5063837;28;20051;-55
2022/11/15 09:47:31;;;;;;;30.67;26.63;;;11.80;99.90;;;;;;5047805;28;20036;-55
2022/11/15 09:50:00;;;;;;;30.17;25.35;;;11.80;99.90;;;;;;5057145;28;20505;-56
2022/11/15 09:52:25;;;;;;;27.88;24.50;;;11.80;99.90;;;;;;5040896;28;20865;-56
2022/11/15 09:54:52;;;;;;;27.27;24.13;;;11.80;99.90;;;;;;5059671;28;20123;-56
2022/11/15 09:58:03;;;;;;;27.48;23.70;;;11.80;99.90;;;;;;5050556;28;20037;-57
2022/11/15 10:00:42;;;;;;;31.75;21.70;;;11.80;99.90;;;;;;5024315;28;20049;-57
2022/11/15 10:03:12;;;;;;;23.92;21.15;;;11.80;99.90;;;;;;5033181;28;20053;-57
2022/11/15 10:05:47;;;;;;;22.85;19.35;;;11.80;99.90;;;;;;5013025;28;20126;-55
2022/11/15 10:08:24;;;;;;;22.67;20.27;;;11.90;99.90;;;;;;5008062;28;20372;-56
2022/11/15 10:10:54;;;;;;;20.33;18.20;;;11.90;99.90;;;;;;5022112;28;20140;-56
2022/11/15 10:13:24;;;;;;;20.42;18.27;;;11.90;99.90;;;;;;5026072;28;20049;-57
2022/11/15 10:15:51;;;;;;;22.48;19.35;;;11.90;99.90;;;;;;5024792;28;20034;-57
2022/11/15 10:18:29;;;;;;;19.25;17.25;;;11.90;99.90;;;;;;5025711;28;20120;-57
2022/11/15 10:21:02;;;;;;;20.17;17.48;;;11.90;99.90;;;;;;5023660;28;20055;-56
2022/11/15 10:23:29;;;;;;;17.45;15.52;;;11.90;99.90;;;;;;5021342;28;20052;-57
2022/11/15 10:25:59;;;;;;;17.27;15.45;;;12.00;99.90;;;;;;5026067;28;20108;-57
2022/11/15 10:28:30;;;;;;;24.20;15.52;;;12.00;99.90;;;;;;5010382;28;20073;-56
2022/11/15 10:31:00;;;;;;;15.00;13.50;;;12.10;99.90;;;;;;5007806;28;20129;-58
2022/11/15 10:33:29;;;;;;;15.82;14.10;;;12.10;99.90;;;;;;5023236;28;20048;-57
2022/11/15 10:36:16;;;;;;;16.83;12.68;;;12.10;99.90;;;;;;5038392;28;20338;-57
2022/11/15 10:38:55;;;;;;;14.07;12.63;;;12.10;99.90;;;;;;5060585;28;20158;-57
2022/11/15 10:41:31;;;;;;;11.57;10.38;;;12.10;99.90;;;;;;5056643;28;20295;-56
2022/11/15 10:44:20;;;;;;;10.02;9.13;;;12.20;99.90;;;;;;5053633;28;20067;-57
2022/11/15 10:47:07;;;;;;;10.13;9.07;;;12.20;99.90;;;;;;5049102;28;20045;-57
2022/11/15 10:49:34;;;;;;;15.10;9.98;;;12.20;99.90;;;;;;5045906;28;20049;-57
2022/11/15 10:52:15;;;;;;;14.82;11.13;;;12.30;99.90;;;;;;5051483;28;20036;-56
2022/11/15 10:54:44;;;;;;;11.25;9.52;;;12.30;99.90;;;;;;5055069;28;20048;-55
2022/11/15 10:57:19;;;;;;;10.48;9.18;;;12.40;99.90;;;;;;5052670;28;20041;-56
2022/11/15 10:59:54;;;;;;;9.40;7.53;;;12.50;99.90;;;;;;5053583;28;20044;-55
2022/11/15 11:02:33;;;;;;;10.57;8.60;;;12.50;99.90;;;;;;5056950;28;20037;-54
2022/11/15 11:04:59;;;;;;;9.32;6.55;;;12.50;99.90;;;;;;5051169;28;20044;-57
2022/11/15 11:07:30;;;;;;;8.13;7.10;;;12.60;99.90;;;;;;5044250;28;20040;-57
2022/11/15 11:10:05;;;;;;;8.15;6.70;;;12.60;99.90;;;;;;5046384;28;20048;-57
2022/11/15 11:12:33;;;;;;;10.32;6.47;;;12.70;99.90;;;;;;5052865;28;20445;-54
2022/11/15 11:15:01;;;;;;;11.15;5.43;;;12.70;99.90;;;;;;5058768;28;20477;-56
2022/11/15 11:18:01;;;;;;;9.20;5.85;;;12.80;99.90;;;;;;5055416;28;20048;-55
2022/11/15 11:20:44;;;;;;;7.50;4.40;;;13.00;99.90;;;;;;5044455;28;20166;-56
2022/11/15 11:23:43;;;;;;;5.90;4.35;;;13.10;99.90;;;;;;5047441;28;20037;-56
2022/11/15 11:26:33;;;;;;;6.03;3.83;;;13.40;99.90;;;;;;5048059;28;20461;-57
2022/11/15 11:29:14;;;;;;;5.18;3.70;;;13.60;99.90;;;;;;5053200;28;20071;-55
2022/11/15 11:31:42;;;;;;;6.45;4.15;;;13.80;99.90;;;;;;5049133;28;20051;-56
2022/11/15 11:34:36;;;;;;;6.10;3.80;;;13.80;99.90;;;;;;5056497;28;20037;-55
2022/11/15 11:37:23;;;;;;;6.93;3.92;;;13.90;99.90;;;;;;5052315;28;20445;-57
2022/11/15 11:39:55;;;;;;;;;;;13.90;99.90;;;;;;5059815;28;20029;-55
2022/11/15 11:42:33;;;;;;;5.63;3.08;;;13.80;99.90;;;;;;5053405;28;19917;-56
2022/11/15 11:45:13;;;;;;;4.85;2.60;;;13.70;99.90;;;;;;5052077;28;20041;-57
2022/11/15 11:47:44;;;;;;;4.80;2.72;;;13.80;99.90;;;;;;5047423;28;20044;-57
2022/11/15 11:50:23;;;;;;;7.95;3.15;;;13.80;99.90;;;;;;5051699;28;20522;-56
2022/11/15 11:53:14;;;;;;;4.93;2.28;;;13.80;99.90;;;;;;5052176;28;20098;-58
2022/11/15 11:55:44;;;;;;;4.45;2.00;;;13.80;99.90;;;;;;5051731;28;20115;-56
2022/11/15 11:58:21;;;;;;;5.03;1.88;;;13.80;99.90;;;;;;5050286;28;20127;-54
2022/11/15 12:01:14;;;;;;;3.05;1.88;;;13.90;99.90;;;;;;5044513;28;20032;-56
2022/11/15 12:04:01;;;;;;;2.65;1.75;;;14.10;99.90;;;;;;5053875;28;20307;-56
2022/11/15 12:06:38;;;;;;;3.05;1.40;;;14.30;99.90;;;;;;5061590;28;20120;-58
2022/11/15 12:09:13;;;;;;;3.40;1.52;;;14.40;99.90;;;;;;5047618;28;20040;-57
2022/11/15 12:11:54;;;;;;;4.85;2.50;;;14.40;99.90;;;;;;5049423;28;20056;-56
2022/11/15 12:14:54;;;;;;;4.40;2.20;;;14.40;99.90;;;;;;5046395;28;20037;-56
2022/11/15 12:17:26;;;;;;;3.63;2.22;;;14.50;99.90;;;;;;5052734;28;20048;-56
2022/11/15 12:19:57;;;;;;;4.28;2.15;;;14.60;99.90;;;;;;5045907;28;20311;-57
2022/11/15 12:22:38;;;;;;;3.45;1.88;;;14.60;99.90;;;;;;5055182;28;20075;-57
2022/11/15 12:25:22;;;;;;;2.10;1.50;;;14.80;99.90;;;;;;5043738;28;20045;-58
2022/11/15 12:28:13;;;;;;;3.30;1.55;;;14.80;99.90;;;;;;5048230;28;20289;-58
2022/11/15 12:30:52;;;;;;;2.17;1.25;;;14.90;99.90;;;;;;5051529;28;20055;-58
2022/11/15 12:33:46;;;;;;;3.13;1.15;;;15.20;99.90;;;;;;5047396;28;20033;-56
2022/11/15 12:36:21;;;;;;;6.53;1.02;;;15.60;99.90;;;;;;5050402;28;20052;-56
2022/11/15 12:38:53;;;;;;;4.63;0.95;;;15.90;99.90;;;;;;5049821;28;20076;-55
2022/11/15 12:41:20;;;;;;;3.35;0.80;;;16.00;99.90;;;;;;5050133;28;20049;-58
2022/11/15 12:43:47;;;;;;;2.80;0.82;;;16.30;99.90;;;;;;5049704;28;20090;-54
2022/11/15 12:46:42;;;;;;;3.78;1.30;;;16.20;99.90;;;;;;5049446;28;20233;-56
2022/11/15 12:49:12;;;;;;;1.55;0.88;;;16.20;99.90;;;;;;5053469;28;20053;-57
2022/11/15 12:51:47;;;;;;;5.18;1.08;;;16.20;99.90;;;;;;5046885;28;20037;-56
2022/11/15 12:54:22;;;;;;;3.05;0.45;;;16.30;99.90;;;;;;5057340;28;20040;-56
2022/11/15 12:57:02;;;;;;;2.50;0.90;;;16.70;99.90;;;;;;5055431;28;20072;-58
2022/11/15 12:59:46;;;;;;;2.83;0.90;;;17.00;99.90;;;;;;5053049;28;20041;-57
2022/11/15 13:02:19;;;;;;;2.00;0.43;;;17.50;99.90;;;;;;5047955;28;20037;-57
2022/11/15 13:04:45;;;;;;;2.63;0.90;;;17.80;99.20;;;;;;5048865;28;20043;-57
2022/11/15 13:07:39;;;;;;;3.78;1.02;;;17.40;98.90;;;;;;5058439;28;20040;-57